Time;durP1;ratioP1;P1;durP2;ratioP2;P2;SDS_P1;SDS_P2;PMS_P1;PMS_P2;Temp;Humidity;BMP_temperature;BMP_pressure;BME280_temperature;BME280_humidity;BME280_pressure;Samples;Min_cycle;Max_cycle;Signal;HPM_P1;HPM_P2
2023/06/21 00:00:57;;;;;;;43.28;37.20;;;22.90;99.90;;;;;;4981068;28;20202;-76
2023/06/21 00:10:07;;;;;;;43.85;39.22;;;22.80;99.90;;;;;;4980501;28;20253;-79
2023/06/21 00:12:34;;;;;;;40.17;35.95;;;22.80;99.90;;;;;;4985133;28;20209;-78
2023/06/21 00:15:00;;;;;;;43.10;38.47;;;22.80;99.90;;;;;;4988297;28;20224;-77
2023/06/21 00:17:25;;;;;;;44.83;37.90;;;22.80;99.90;;;;;;4963336;28;20225;-78
2023/06/21 00:19:54;;;;;;;36.97;33.15;;;22.80;99.90;;;;;;4972200;28;20212;-78
2023/06/21 00:22:21;;;;;;;35.47;31.70;;;22.80;99.90;;;;;;4982722;28;20217;-78
2023/06/21 00:24:48;;;;;;;38.55;34.47;;;22.80;99.90;;;;;;4987574;28;20733;-79
2023/06/21 00:27:14;;;;;;;39.40;35.17;;;22.80;99.90;;;;;;4985544;28;20746;-78
2023/06/21 00:29:40;;;;;;;37.85;33.85;;;22.80;99.90;;;;;;4968982;28;20174;-77
2023/06/21 00:32:06;;;;;;;37.05;33.38;;;22.80;99.90;;;;;;4983290;28;20178;-78
2023/06/21 00:34:32;;;;;;;37.40;33.50;;;22.80;99.90;;;;;;4989889;28;20209;-78
2023/06/21 00:36:58;;;;;;;36.72;33.00;;;22.80;99.90;;;;;;4966127;28;20673;-77
2023/06/21 00:39:23;;;;;;;38.28;34.08;;;22.80;99.90;;;;;;4974905;28;20232;-78
2023/06/21 00:41:49;;;;;;;36.55;32.88;;;22.80;99.90;;;;;;4986488;28;20201;-78
2023/06/21 00:44:15;;;;;;;37.72;33.83;;;22.80;99.90;;;;;;4983226;28;20200;-78
2023/06/21 00:46:40;;;;;;;37.78;33.67;;;22.70;99.90;;;;;;4970714;28;20206;-80
2023/06/21 00:49:06;;;;;;;35.42;31.75;;;22.70;99.90;;;;;;4986642;28;20207;-78
2023/06/21 00:51:32;;;;;;;36.53;32.72;;;22.70;99.90;;;;;;4968098;28;20201;-78
2023/06/21 00:53:59;;;;;;;36.17;32.58;;;22.80;99.90;;;;;;4988171;28;20244;-77
2023/06/21 00:56:25;;;;;;;36.08;32.47;;;22.80;99.90;;;;;;4972471;28;20178;-79
2023/06/21 00:58:51;;;;;;;35.75;32.13;;;22.70;99.90;;;;;;4985530;28;20326;-77
2023/06/21 01:01:16;;;;;;;36.08;32.17;;;22.70;99.90;;;;;;4977624;28;20225;-77
2023/06/21 01:03:42;;;;;;;35.75;32.17;;;22.70;99.90;;;;;;4970987;28;20210;-76
2023/06/21 01:06:35;;;;;;;33.50;29.90;;;22.70;99.90;;;;;;4984301;28;20259;-77
2023/06/21 01:09:32;;;;;;;35.55;31.92;;;22.70;99.90;;;;;;4994759;28;20208;-77
2023/06/21 01:12:35;;;;;;;33.38;29.77;;;22.70;99.90;;;;;;4962444;28;20210;-78
2023/06/21 01:15:02;;;;;;;33.58;30.27;;;22.70;99.90;;;;;;4988766;28;20279;-78
2023/06/21 01:17:32;;;;;;;33.55;30.25;;;22.70;99.90;;;;;;4983890;28;20265;-81
2023/06/21 01:19:58;;;;;;;33.97;30.60;;;22.60;99.90;;;;;;4983270;28;20798;-80
2023/06/21 01:22:46;;;;;;;31.52;28.23;;;22.70;99.90;;;;;;4986982;28;20222;-79
2023/06/21 01:25:11;;;;;;;32.40;29.00;;;22.70;99.90;;;;;;4982512;28;20210;-78
2023/06/21 01:28:21;;;;;;;31.40;28.27;;;22.80;99.90;;;;;;4988264;28;20549;-79
2023/06/21 01:30:48;;;;;;;31.77;28.40;;;22.80;99.90;;;;;;4973570;28;20249;-77
2023/06/21 01:33:17;;;;;;;31.92;28.83;;;22.80;99.90;;;;;;4983754;28;20229;-78
2023/06/21 01:35:43;;;;;;;33.15;29.77;;;22.80;99.90;;;;;;4971910;28;20281;-78
2023/06/21 01:38:09;;;;;;;33.35;29.75;;;22.80;99.90;;;;;;4973905;28;20270;-78
2023/06/21 01:40:38;;;;;;;31.67;28.48;;;22.80;99.90;;;;;;4983001;28;20267;-77
2023/06/21 01:43:05;;;;;;;30.42;27.48;;;22.80;99.90;;;;;;4986759;28;20213;-77
2023/06/21 01:45:31;;;;;;;31.92;28.65;;;22.80;99.90;;;;;;4987498;28;20241;-77
2023/06/21 01:47:57;;;;;;;31.50;28.17;;;22.80;99.90;;;;;;4978304;28;20226;-77
2023/06/21 01:50:24;;;;;;;31.38;28.15;;;22.90;99.90;;;;;;4988996;28;20184;-78
2023/06/21 01:52:52;;;;;;;31.70;28.20;;;22.90;99.90;;;;;;4983376;28;20285;-77
2023/06/21 01:55:19;;;;;;;30.98;27.75;;;22.90;99.90;;;;;;4969156;28;20222;-77
2023/06/21 01:57:45;;;;;;;30.70;27.50;;;22.80;99.90;;;;;;4982855;28;20205;-77
2023/06/21 02:00:16;;;;;;;33.55;30.00;;;22.80;99.90;;;;;;4963975;28;20748;-78
2023/06/21 02:02:47;;;;;;;30.88;27.70;;;22.80;99.90;;;;;;4984233;28;20664;-78
2023/06/21 02:05:15;;;;;;;32.15;28.75;;;22.80;99.90;;;;;;4986530;28;20236;-80
2023/06/21 02:07:41;;;;;;;33.10;29.50;;;22.80;99.90;;;;;;4983509;28;20201;-78
2023/06/21 02:10:09;;;;;;;32.40;29.00;;;22.80;99.90;;;;;;4984562;28;20201;-79
2023/06/21 02:12:34;;;;;;;32.38;28.88;;;22.80;99.90;;;;;;4985489;28;20206;-79
2023/06/21 02:15:00;;;;;;;36.35;29.13;;;22.80;99.90;;;;;;4963952;28;20218;-78
2023/06/21 02:17:28;;;;;;;32.63;29.20;;;22.70;99.90;;;;;;4964572;28;20242;-79
2023/06/21 02:19:55;;;;;;;30.67;27.67;;;22.70;99.90;;;;;;4981003;28;20766;-78
2023/06/21 02:22:21;;;;;;;32.47;29.08;;;22.70;99.90;;;;;;4980546;28;20225;-77
2023/06/21 02:24:46;;;;;;;32.65;29.33;;;22.70;99.90;;;;;;4980351;28;20615;-78
2023/06/21 02:27:12;;;;;;;33.22;29.83;;;22.60;99.90;;;;;;4986682;28;20681;-80
2023/06/21 02:29:37;;;;;;;35.65;31.70;;;22.60;99.90;;;;;;4986790;28;20708;-76
2023/06/21 02:32:03;;;;;;;35.53;31.65;;;22.60;99.90;;;;;;4979820;28;20178;-75
2023/06/21 02:34:29;;;;;;;36.58;32.67;;;22.60;99.90;;;;;;4971806;28;20218;-76
2023/06/21 02:36:55;;;;;;;36.42;32.65;;;22.50;99.90;;;;;;4980831;28;20616;-75
2023/06/21 02:39:22;;;;;;;39.47;35.17;;;22.60;99.90;;;;;;4964028;28;20229;-76
2023/06/21 02:41:48;;;;;;;37.97;33.97;;;22.60;99.90;;;;;;4987281;28;20592;-74
2023/06/21 02:44:14;;;;;;;39.17;34.90;;;22.70;99.90;;;;;;4983787;28;20345;-77
2023/06/21 02:46:40;;;;;;;37.83;33.83;;;22.70;99.90;;;;;;4983008;28;20819;-76
2023/06/21 02:49:06;;;;;;;37.47;33.13;;;22.50;99.90;;;;;;4983848;28;20220;-75
2023/06/21 02:51:32;;;;;;;37.50;32.95;;;22.50;99.90;;;;;;4962111;28;20889;-76
2023/06/21 02:53:57;;;;;;;37.65;33.58;;;22.60;99.90;;;;;;4980472;28;20260;-76
2023/06/21 02:56:23;;;;;;;37.83;33.70;;;22.50;99.90;;;;;;4981459;28;20652;-76
2023/06/21 02:58:49;;;;;;;55.53;47.28;;;22.40;99.90;;;;;;4977922;28;20213;-75
2023/06/21 03:01:16;;;;;;;43.83;39.08;;;22.50;99.90;;;;;;4983992;28;20214;-76
2023/06/21 03:03:44;;;;;;;39.70;35.40;;;22.40;99.90;;;;;;4984990;28;20286;-76
2023/06/21 03:06:11;;;;;;;40.05;35.83;;;22.40;99.90;;;;;;4979524;28;20230;-77
2023/06/21 03:08:38;;;;;;;41.72;37.25;;;22.40;99.90;;;;;;4962370;28;20182;-77
2023/06/21 03:11:08;;;;;;;39.22;35.13;;;22.30;99.90;;;;;;4982829;28;20173;-76
2023/06/21 03:13:36;;;;;;;40.35;36.00;;;22.30;99.90;;;;;;4972938;28;20214;-77
2023/06/21 03:16:02;;;;;;;39.92;35.88;;;22.30;99.90;;;;;;4980751;28;20286;-76
2023/06/21 03:18:28;;;;;;;40.58;36.25;;;22.30;99.90;;;;;;4969813;28;20321;-76
2023/06/21 03:20:54;;;;;;;43.60;38.80;;;22.30;99.90;;;;;;4985785;28;20209;-76
2023/06/21 03:23:20;;;;;;;58.35;47.38;;;22.20;99.90;;;;;;4984368;28;20267;-76
2023/06/21 03:25:45;;;;;;;51.08;42.53;;;22.30;99.90;;;;;;4981574;28;20206;-77
2023/06/21 03:28:11;;;;;;;49.20;43.00;;;22.30;99.90;;;;;;4979703;28;20209;-77
2023/06/21 03:30:36;;;;;;;42.15;37.70;;;22.20;99.90;;;;;;4980078;28;20684;-77
2023/06/21 03:33:02;;;;;;;41.78;37.40;;;22.20;99.90;;;;;;4982531;28;20284;-76
2023/06/21 03:35:29;;;;;;;40.72;36.20;;;22.10;99.90;;;;;;4981581;28;20573;-76
2023/06/21 03:37:55;;;;;;;40.53;36.20;;;22.00;99.90;;;;;;4980443;28;20345;-76
2023/06/21 03:40:21;;;;;;;38.58;34.63;;;22.10;99.90;;;;;;4966813;28;20717;-77
2023/06/21 03:42:47;;;;;;;39.70;35.50;;;22.10;99.90;;;;;;4987117;28;20319;-76
2023/06/21 03:45:13;;;;;;;41.08;36.60;;;22.10;99.90;;;;;;4979657;28;20300;-77
2023/06/21 03:47:40;;;;;;;42.45;38.10;;;22.00;99.90;;;;;;4984639;28;20186;-76
2023/06/21 03:50:09;;;;;;;42.83;38.28;;;22.00;99.90;;;;;;4985974;28;20270;-75
2023/06/21 03:52:35;;;;;;;42.83;38.22;;;22.00;99.90;;;;;;4972828;28;20583;-75
2023/06/21 03:55:02;;;;;;;42.00;37.60;;;22.10;99.90;;;;;;4967372;28;20209;-75
2023/06/21 03:57:27;;;;;;;45.25;40.65;;;22.10;99.90;;;;;;4971536;28;21616;-76
2023/06/21 03:59:53;;;;;;;44.55;39.72;;;22.20;99.90;;;;;;4985535;28;20551;-75
2023/06/21 04:02:20;;;;;;;45.17;40.40;;;22.20;99.90;;;;;;4983350;28;20206;-75
2023/06/21 04:04:50;;;;;;;42.78;38.38;;;22.30;99.90;;;;;;4985067;28;20214;-74
2023/06/21 04:07:21;;;;;;;42.22;37.85;;;22.40;99.90;;;;;;4982832;28;20209;-76
2023/06/21 04:09:48;;;;;;;44.03;39.00;;;22.50;99.90;;;;;;4991585;28;20271;-74
2023/06/21 04:12:14;;;;;;;43.60;38.95;;;22.50;99.90;;;;;;4982205;28;20220;-75
2023/06/21 04:14:39;;;;;;;44.40;39.70;;;22.50;99.90;;;;;;4983547;28;20677;-74
2023/06/21 04:17:05;;;;;;;45.80;40.88;;;22.50;99.90;;;;;;4986042;28;20196;-74
2023/06/21 04:19:31;;;;;;;43.55;38.95;;;22.60;99.90;;;;;;4982584;28;20222;-76
2023/06/21 04:21:56;;;;;;;44.05;39.40;;;22.60;99.90;;;;;;4984257;28;20668;-76
2023/06/21 04:24:22;;;;;;;43.58;39.08;;;22.70;99.90;;;;;;4980257;28;20305;-76
2023/06/21 04:26:48;;;;;;;43.45;38.83;;;22.70;99.90;;;;;;4972660;28;20202;-75
2023/06/21 04:29:16;;;;;;;45.65;40.90;;;22.90;99.90;;;;;;4983500;28;20221;-75
2023/06/21 04:31:45;;;;;;;43.35;38.88;;;22.80;99.90;;;;;;4973686;28;20292;-75
2023/06/21 04:34:10;;;;;;;45.38;40.42;;;22.90;99.90;;;;;;4982498;28;20301;-75
2023/06/21 04:36:37;;;;;;;45.58;40.90;;;22.90;99.90;;;;;;4984980;28;20296;-75
2023/06/21 04:39:02;;;;;;;44.70;40.15;;;22.90;99.90;;;;;;4987330;28;20301;-76
2023/06/21 04:41:28;;;;;;;46.47;41.63;;;22.90;99.90;;;;;;4983547;28;20631;-75
2023/06/21 04:43:54;;;;;;;48.13;43.03;;;23.00;99.90;;;;;;4980030;28;20244;-75
2023/06/21 04:46:21;;;;;;;47.60;42.47;;;23.10;99.90;;;;;;4965361;28;20301;-76
2023/06/21 04:48:47;;;;;;;47.53;42.42;;;23.10;99.90;;;;;;4968897;28;20209;-74
2023/06/21 04:51:15;;;;;;;47.45;41.97;;;23.20;99.90;;;;;;4987554;28;20312;-75
2023/06/21 04:53:44;;;;;;;46.42;41.55;;;23.10;99.90;;;;;;4984669;28;20551;-75
2023/06/21 04:56:13;;;;;;;46.53;41.47;;;23.10;99.90;;;;;;4990547;28;20640;-74
2023/06/21 04:58:39;;;;;;;48.05;43.10;;;23.10;99.90;;;;;;4983346;28;20214;-76
2023/06/21 05:01:08;;;;;;;45.33;40.72;;;23.00;99.90;;;;;;4984420;28;20204;-76
2023/06/21 05:03:34;;;;;;;48.65;43.78;;;23.10;99.90;;;;;;4991118;28;20217;-75
2023/06/21 05:06:03;;;;;;;50.20;43.97;;;23.20;99.90;;;;;;4987683;28;20708;-75
2023/06/21 05:08:28;;;;;;;49.45;44.20;;;23.30;99.90;;;;;;4988857;28;20257;-75
2023/06/21 05:10:54;;;;;;;45.35;40.78;;;23.50;99.90;;;;;;4988053;28;20680;-75
2023/06/21 05:13:20;;;;;;;46.60;41.65;;;23.70;99.90;;;;;;4985651;28;20218;-75
2023/06/21 05:15:46;;;;;;;45.00;40.30;;;23.90;99.90;;;;;;4980643;28;20724;-76
2023/06/21 05:18:11;;;;;;;42.75;38.25;;;24.10;99.90;;;;;;4972544;28;20214;-75
2023/06/21 05:20:37;;;;;;;41.50;37.22;;;24.30;99.90;;;;;;4985160;28;20186;-75
2023/06/21 05:23:02;;;;;;;40.42;36.05;;;24.60;99.90;;;;;;4971854;28;20204;-75
2023/06/21 05:25:29;;;;;;;41.05;36.72;;;24.80;99.90;;;;;;4988194;28;20210;-75
2023/06/21 05:27:54;;;;;;;39.28;35.22;;;25.00;99.90;;;;;;4992135;28;20585;-76
2023/06/21 05:30:20;;;;;;;37.33;33.67;;;25.20;99.90;;;;;;4988682;28;20210;-75
2023/06/21 05:32:46;;;;;;;36.15;32.30;;;26.50;99.90;;;;;;4987478;28;20178;-75
2023/06/21 05:35:11;;;;;;;34.20;30.83;;;27.90;99.90;;;;;;4979246;28;20194;-76
2023/06/21 05:37:37;;;;;;;34.17;30.73;;;28.60;99.90;;;;;;4988686;28;20217;-76
2023/06/21 05:40:07;;;;;;;35.40;31.85;;;29.20;99.90;;;;;;4986875;28;20794;-75
2023/06/21 05:42:32;;;;;;;34.00;30.70;;;30.00;99.90;;;;;;4985562;28;20325;-76
2023/06/21 05:44:58;;;;;;;30.85;27.85;;;30.40;99.90;;;;;;4986463;28;20296;-76
2023/06/21 05:47:24;;;;;;;32.65;29.55;;;29.60;99.90;;;;;;4984390;28;20667;-77
2023/06/21 05:49:49;;;;;;;32.15;29.05;;;28.60;99.90;;;;;;4969602;28;20293;-76
2023/06/21 05:52:16;;;;;;;31.67;28.63;;;27.70;99.90;;;;;;4982857;28;20637;-76
2023/06/21 05:54:43;;;;;;;34.17;30.85;;;27.30;99.90;;;;;;4986099;28;20213;-76
2023/06/21 05:57:09;;;;;;;35.25;31.17;;;26.90;99.90;;;;;;4982290;28;20234;-76
2023/06/21 05:59:35;;;;;;;33.40;30.10;;;26.60;99.90;;;;;;4973867;28;20906;-76
2023/06/21 06:02:00;;;;;;;34.90;31.38;;;26.20;99.90;;;;;;4989139;28;20673;-76
2023/06/21 06:04:26;;;;;;;36.97;33.00;;;25.90;99.90;;;;;;4990795;28;20214;-77
2023/06/21 06:06:52;;;;;;;37.50;33.53;;;25.50;99.90;;;;;;4974804;28;20251;-75
2023/06/21 06:09:17;;;;;;;37.60;33.83;;;25.30;99.90;;;;;;4988703;28;20217;-74
2023/06/21 06:11:43;;;;;;;36.33;32.67;;;25.10;99.90;;;;;;4974951;28;20186;-74
2023/06/21 06:14:11;;;;;;;33.90;30.30;;;25.10;99.90;;;;;;4990341;28;20205;-75
2023/06/21 06:16:38;;;;;;;34.65;31.05;;;25.50;99.90;;;;;;4988392;28;20270;-74
2023/06/21 06:19:03;;;;;;;35.90;32.30;;;26.00;99.90;;;;;;4989262;28;20598;-77
2023/06/21 06:21:29;;;;;;;34.17;30.70;;;26.50;99.90;;;;;;4986150;28;20218;-76
2023/06/21 06:23:55;;;;;;;33.22;29.63;;;27.70;99.90;;;;;;4988328;28;20216;-76
2023/06/21 06:26:22;;;;;;;33.40;30.10;;;28.90;99.90;;;;;;4987619;28;20174;-76
2023/06/21 06:28:49;;;;;;;33.17;29.85;;;30.20;99.90;;;;;;4986689;28;20206;-76
2023/06/21 06:31:17;;;;;;;31.67;28.65;;;31.80;99.90;;;;;;4993721;28;20276;-75
2023/06/21 06:33:43;;;;;;;30.65;27.60;;;32.50;99.90;;;;;;4984031;28;20205;-75
2023/06/21 06:36:08;;;;;;;30.88;27.98;;;33.20;99.90;;;;;;4987241;28;20875;-75
2023/06/21 06:38:34;;;;;;;31.48;28.50;;;33.30;99.90;;;;;;4982086;28;20189;-76
2023/06/21 06:41:00;;;;;;;30.67;27.80;;;33.20;99.90;;;;;;4992316;28;20205;-75
2023/06/21 06:43:25;;;;;;;29.98;26.92;;;33.90;99.90;;;;;;4988098;28;20221;-74
2023/06/21 06:45:51;;;;;;;30.17;27.40;;;33.80;99.90;;;;;;4987245;28;20206;-75
2023/06/21 06:48:16;;;;;;;31.42;28.50;;;33.70;99.90;;;;;;4988892;28;20315;-75
2023/06/21 06:50:43;;;;;;;30.98;28.17;;;34.10;99.90;;;;;;4991761;28;20242;-74
2023/06/21 06:53:08;;;;;;;30.92;28.02;;;34.80;99.90;;;;;;4987540;28;20193;-75
2023/06/21 06:55:35;;;;;;;33.45;30.45;;;34.70;99.90;;;;;;4972975;28;20216;-74
2023/06/21 06:58:01;;;;;;;29.35;26.75;;;35.50;99.90;;;;;;4984041;28;20597;-75
2023/06/21 07:00:27;;;;;;;26.45;23.67;;;36.10;99.90;;;;;;4990928;28;20244;-74
2023/06/21 07:02:57;;;;;;;27.58;25.02;;;36.70;99.90;;;;;;4986138;28;20228;-75
2023/06/21 07:05:23;;;;;;;26.80;24.50;;;37.10;99.90;;;;;;5002602;28;20215;-76
2023/06/21 07:07:50;;;;;;;26.15;23.77;;;37.30;99.90;;;;;;4986336;28;20217;-75
2023/06/21 07:10:16;;;;;;;25.50;23.10;;;36.20;99.90;;;;;;4981816;28;20261;-72
2023/06/21 07:12:42;;;;;;;24.45;22.25;;;34.60;99.90;;;;;;4987692;28;20213;-74
2023/06/21 07:15:08;;;;;;;24.90;22.77;;;33.10;99.90;;;;;;4983925;28;20700;-75
2023/06/21 07:17:34;;;;;;;21.83;19.80;;;32.10;99.90;;;;;;4981663;28;20267;-74
2023/06/21 07:19:59;;;;;;;22.75;20.65;;;30.70;99.90;;;;;;4988807;28;20264;-74
2023/06/21 07:22:25;;;;;;;22.65;20.55;;;29.50;99.90;;;;;;4988540;28;20272;-75
2023/06/21 07:24:50;;;;;;;22.75;20.65;;;28.80;99.90;;;;;;4987992;28;20375;-75
2023/06/21 07:27:16;;;;;;;21.50;19.40;;;28.60;99.90;;;;;;4988856;28;20205;-75
2023/06/21 07:29:42;;;;;;;21.45;19.15;;;28.30;99.90;;;;;;4986211;28;20186;-75
2023/06/21 07:32:07;;;;;;;21.17;19.02;;;28.40;99.90;;;;;;4993379;28;20178;-76
2023/06/21 07:34:33;;;;;;;19.95;17.85;;;29.60;99.90;;;;;;4987764;28;20208;-76
2023/06/21 07:36:59;;;;;;;19.85;17.95;;;31.40;99.90;;;;;;4972721;28;20273;-74
2023/06/21 07:39:24;;;;;;;17.45;15.75;;;32.90;99.90;;;;;;4983643;28;20287;-75
2023/06/21 07:41:50;;;;;;;18.38;16.55;;;33.70;99.90;;;;;;4985130;28;20254;-74
2023/06/21 07:44:17;;;;;;;17.73;16.13;;;34.30;99.90;;;;;;4968276;28;20189;-76
2023/06/21 07:46:43;;;;;;;17.33;15.55;;;34.80;99.90;;;;;;4986068;28;20229;-76
2023/06/21 07:49:13;;;;;;;16.80;15.30;;;35.20;99.90;;;;;;4980866;28;20205;-76
2023/06/21 07:51:38;;;;;;;14.82;13.43;;;35.30;99.90;;;;;;4980504;28;20572;-76
2023/06/21 07:54:04;;;;;;;14.13;12.93;;;36.50;99.90;;;;;;4983080;28;20302;-76
2023/06/21 07:56:30;;;;;;;15.50;13.98;;;36.70;99.90;;;;;;4982554;28;20177;-76
2023/06/21 07:58:55;;;;;;;16.27;14.80;;;35.60;99.90;;;;;;4967856;28;20232;-77
2023/06/21 08:01:21;;;;;;;15.40;14.00;;;34.90;99.90;;;;;;4988313;28;20209;-76
2023/06/21 08:03:47;;;;;;;14.85;13.45;;;34.60;99.90;;;;;;5002788;28;20216;-76
2023/06/21 08:06:12;;;;;;;12.93;11.73;;;35.10;99.90;;;;;;4993270;28;20209;-76
2023/06/21 08:08:38;;;;;;;13.20;12.10;;;35.60;99.90;;;;;;5003361;28;20251;-76
2023/06/21 08:11:04;;;;;;;13.60;12.40;;;36.10;99.90;;;;;;4986201;28;20189;-75
2023/06/21 08:13:30;;;;;;;13.82;12.70;;;36.60;99.90;;;;;;4985245;28;20312;-75
2023/06/21 08:15:55;;;;;;;13.75;12.57;;;36.40;99.90;;;;;;4971955;28;20763;-75
2023/06/21 08:18:21;;;;;;;14.02;12.73;;;36.80;99.90;;;;;;4986467;28;20239;-75
2023/06/21 08:20:47;;;;;;;13.95;12.73;;;37.20;99.90;;;;;;4984320;28;20543;-75
2023/06/21 08:23:12;;;;;;;13.77;12.27;;;37.50;99.90;;;;;;4984874;28;20201;-76
2023/06/21 08:25:38;;;;;;;14.88;13.57;;;37.40;99.90;;;;;;4971681;28;20204;-75
2023/06/21 08:28:04;;;;;;;13.52;12.43;;;37.00;99.90;;;;;;4988350;28;20280;-75
2023/06/21 08:30:30;;;;;;;14.07;12.60;;;36.70;99.90;;;;;;4985717;28;20213;-75
2023/06/21 08:32:55;;;;;;;13.80;12.55;;;37.00;99.90;;;;;;4983316;28;20858;-75
2023/06/21 08:35:21;;;;;;;14.18;12.95;;;37.00;99.90;;;;;;4990196;28;20193;-75
2023/06/21 08:37:57;;;;;;;14.43;13.23;;;36.70;99.90;;;;;;4988368;28;20287;-74
2023/06/21 08:40:33;;;;;;;12.63;11.63;;;36.90;99.90;;;;;;4993402;28;20236;-74
2023/06/21 08:43:00;;;;;;;13.02;11.82;;;36.30;99.90;;;;;;4966921;28;20216;-75
2023/06/21 08:45:26;;;;;;;12.05;10.82;;;35.90;99.90;;;;;;4987607;28;20239;-76
2023/06/21 08:47:52;;;;;;;12.63;11.40;;;36.40;99.90;;;;;;4991369;28;20535;-75
2023/06/21 08:50:21;;;;;;;11.02;10.02;;;36.80;99.90;;;;;;4988847;28;20183;-75
2023/06/21 08:52:49;;;;;;;12.57;11.40;;;36.50;99.90;;;;;;4989029;28;20623;-75
2023/06/21 08:55:18;;;;;;;11.25;10.25;;;35.50;99.90;;;;;;4987579;28;20675;-76
2023/06/21 08:57:43;;;;;;;10.70;9.73;;;34.80;99.90;;;;;;4985032;28;20210;-76
2023/06/21 09:00:12;;;;;;;11.68;10.63;;;34.20;99.90;;;;;;4978048;28;20260;-75
2023/06/21 09:03:01;;;;;;;11.82;10.63;;;33.90;99.90;;;;;;4995045;28;20198;-75
2023/06/21 09:05:33;;;;;;;10.77;9.77;;;34.20;99.90;;;;;;4982046;28;20213;-75
2023/06/21 09:08:01;;;;;;;11.30;10.20;;;34.40;99.90;;;;;;4990044;28;20205;-76
2023/06/21 09:10:28;;;;;;;11.77;10.68;;;34.50;99.90;;;;;;4985684;28;20688;-75
2023/06/21 09:12:56;;;;;;;14.95;13.45;;;34.40;99.90;;;;;;4973383;28;20267;-75
2023/06/21 09:15:23;;;;;;;14.93;13.38;;;34.60;99.90;;;;;;4991558;28;20218;-75
2023/06/21 09:17:50;;;;;;;11.02;10.02;;;34.80;99.90;;;;;;4990773;28;20173;-75
2023/06/21 09:20:16;;;;;;;10.45;9.45;;;34.80;99.90;;;;;;4971744;28;20177;-76
2023/06/21 09:22:44;;;;;;;10.63;9.63;;;34.60;99.90;;;;;;4987983;28;20214;-76
2023/06/21 09:25:10;;;;;;;9.60;8.65;;;34.60;99.90;;;;;;4988896;28;20220;-76
2023/06/21 09:27:35;;;;;;;10.32;9.25;;;34.20;99.90;;;;;;4988999;28;20704;-75
2023/06/21 09:30:01;;;;;;;10.60;9.50;;;33.90;99.90;;;;;;4989638;28;20237;-75
2023/06/21 09:32:28;;;;;;;10.32;9.38;;;33.40;99.90;;;;;;4982202;28;20185;-76
2023/06/21 09:34:54;;;;;;;10.10;9.13;;;33.50;99.90;;;;;;4985098;28;20218;-76
2023/06/21 09:37:36;;;;;;;9.95;9.02;;;33.60;99.90;;;;;;4984108;28;20297;-80
2023/06/21 09:40:05;;;;;;;9.82;8.93;;;33.80;99.90;;;;;;4988777;28;20197;-78
2023/06/21 09:42:34;;;;;;;11.98;10.65;;;33.50;99.90;;;;;;4988593;28;20218;-80
2023/06/21 09:45:00;;;;;;;11.27;10.18;;;33.40;99.90;;;;;;4978277;28;20216;-80
2023/06/21 09:47:30;;;;;;;10.95;9.85;;;33.20;99.90;;;;;;4994528;28;20178;-81
2023/06/21 09:49:57;;;;;;;10.30;9.30;;;33.50;99.90;;;;;;4975282;28;20297;-79
2023/06/21 09:52:23;;;;;;;10.70;8.93;;;32.80;99.90;;;;;;4992106;28;20205;-82
2023/06/21 09:54:50;;;;;;;10.43;9.43;;;32.40;99.90;;;;;;4985184;28;20237;-80
2023/06/21 09:57:16;;;;;;;9.30;8.40;;;31.90;99.90;;;;;;4987369;28;20216;-79
2023/06/21 09:59:47;;;;;;;8.88;8.05;;;31.90;99.90;;;;;;4972823;28;20169;-80
2023/06/21 10:02:12;;;;;;;9.68;8.82;;;32.10;99.90;;;;;;5013959;28;20564;-79
2023/06/21 10:04:43;;;;;;;9.13;8.20;;;31.80;99.90;;;;;;4987342;28;20222;-79
2023/06/21 10:07:12;;;;;;;9.75;8.80;;;31.30;99.90;;;;;;4975102;28;20210;-80
2023/06/21 10:09:38;;;;;;;11.68;10.07;;;31.20;99.90;;;;;;4988693;28;20229;-80
2023/06/21 10:12:15;;;;;;;10.13;9.10;;;30.80;99.90;;;;;;4977403;28;20304;-78
2023/06/21 10:14:41;;;;;;;11.70;8.95;;;31.30;99.90;;;;;;4989586;28;20738;-78
2023/06/21 10:17:07;;;;;;;10.27;9.27;;;31.70;99.90;;;;;;4975151;28;20178;-77
2023/06/21 10:22:16;;;;;;;10.27;9.25;;;31.60;99.90;;;;;;5041192;23;20219;-72
2023/06/21 10:24:52;;;;;;;9.57;8.57;;;31.70;99.90;;;;;;5013413;28;20298;-73
2023/06/21 10:27:19;;;;;;;8.80;7.97;;;31.90;99.90;;;;;;5033408;28;20780;-72
2023/06/21 10:29:53;;;;;;;8.65;7.85;;;31.70;99.90;;;;;;5023096;28;20577;-72
2023/06/21 10:32:20;;;;;;;9.07;8.20;;;31.70;99.90;;;;;;5003358;28;20185;-76
2023/06/21 10:35:24;;;;;;;9.07;7.55;;;31.60;99.90;;;;;;5006328;28;20683;-75
2023/06/21 10:38:13;;;;;;;8.77;7.97;;;31.40;99.90;;;;;;4909132;29;20219;-74
2023/06/21 10:40:40;;;;;;;10.43;9.15;;;30.60;99.90;;;;;;4909509;29;20227;-72
2023/06/21 10:43:06;;;;;;;9.88;8.65;;;30.40;99.90;;;;;;4967949;28;20205;-73
2023/06/21 10:45:33;;;;;;;9.20;8.20;;;30.50;99.90;;;;;;5002604;28;20209;-73
2023/06/21 10:48:00;;;;;;;8.85;8.05;;;30.60;99.90;;;;;;4982562;28;20218;-73
2023/06/21 10:50:27;;;;;;;8.25;7.55;;;30.80;99.90;;;;;;4969836;28;20201;-73
2023/06/21 10:52:54;;;;;;;9.15;8.32;;;30.80;99.90;;;;;;4983547;28;20217;-73
2023/06/21 10:55:21;;;;;;;8.40;7.65;;;30.90;99.90;;;;;;4984481;28;20208;-73
2023/06/21 10:57:53;;;;;;;8.13;7.32;;;31.40;99.90;;;;;;4979456;28;20217;-74
2023/06/21 11:00:21;;;;;;;11.30;6.90;;;31.80;99.90;;;;;;4987081;28;20683;-73
2023/06/21 11:02:47;;;;;;;8.20;7.43;;;31.90;99.90;;;;;;4985212;28;20251;-74
2023/06/21 11:05:20;;;;;;;9.18;7.65;;;31.80;99.90;;;;;;4985021;28;20171;-74
2023/06/21 11:08:04;;;;;;;10.57;8.07;;;31.80;99.90;;;;;;4992026;28;20351;-74
2023/06/21 11:10:49;;;;;;;8.95;8.05;;;32.00;99.90;;;;;;4963948;28;20214;-74
2023/06/21 11:13:17;;;;;;;7.45;6.22;;;32.10;99.90;;;;;;4982586;28;20224;-73
2023/06/21 11:15:46;;;;;;;7.38;6.68;;;32.10;99.90;;;;;;4982897;28;20206;-73
2023/06/21 11:18:19;;;;;;;7.22;6.53;;;31.70;99.90;;;;;;4982026;28;20276;-73
2023/06/21 11:20:51;;;;;;;7.78;6.97;;;31.50;99.90;;;;;;4979147;28;20214;-74
2023/06/21 11:23:19;;;;;;;8.68;6.45;;;31.20;99.90;;;;;;4969805;28;20214;-71
2023/06/21 11:26:03;;;;;;;6.30;5.70;;;31.00;99.90;;;;;;4985229;28;20224;-74
2023/06/21 11:28:33;;;;;;;7.05;6.20;;;30.90;99.90;;;;;;4983665;28;20798;-73
2023/06/21 11:30:59;;;;;;;7.07;6.38;;;30.70;99.90;;;;;;4970692;28;20197;-73
2023/06/21 11:33:29;;;;;;;6.78;6.18;;;30.70;99.90;;;;;;4976838;28;20289;-73
2023/06/21 11:36:03;;;;;;;7.72;5.93;;;30.80;99.90;;;;;;4963274;28;20224;-73
2023/06/21 11:38:32;;;;;;;7.30;6.60;;;30.70;99.90;;;;;;4980968;28;20509;-73
2023/06/21 11:40:59;;;;;;;6.78;6.15;;;30.40;99.90;;;;;;5002305;28;20241;-73
2023/06/21 11:43:24;;;;;;;6.65;6.03;;;30.60;99.90;;;;;;4967190;28;20221;-73
2023/06/21 11:46:00;;;;;;;7.05;6.35;;;30.60;99.90;;;;;;4968765;28;20262;-72
2023/06/21 11:48:27;;;;;;;6.70;5.60;;;30.70;99.90;;;;;;4973112;28;20216;-73
2023/06/21 11:50:55;;;;;;;6.45;5.85;;;30.70;99.90;;;;;;4985257;28;20218;-72
2023/06/21 11:53:28;;;;;;;7.88;6.88;;;30.70;99.90;;;;;;4985673;28;20540;-74
2023/06/21 11:56:00;;;;;;;6.80;6.20;;;30.70;99.90;;;;;;4988129;28;20206;-73
2023/06/21 11:58:26;;;;;;;7.85;6.65;;;30.30;99.90;;;;;;4982834;28;20256;-75
2023/06/21 12:00:53;;;;;;;9.90;7.93;;;30.50;99.90;;;;;;4982684;28;20610;-73
2023/06/21 12:03:26;;;;;;;7.60;6.60;;;30.50;99.90;;;;;;4965532;28;20222;-73
2023/06/21 12:05:53;;;;;;;7.38;6.60;;;30.70;99.90;;;;;;4971653;28;20204;-73
2023/06/21 12:08:27;;;;;;;10.93;8.85;;;30.90;99.90;;;;;;4982366;28;20187;-73
2023/06/21 12:10:53;;;;;;;11.93;9.60;;;31.10;99.90;;;;;;4985696;28;20297;-73
2023/06/21 12:13:20;;;;;;;6.75;6.05;;;31.30;99.90;;;;;;4987993;28;20316;-73
2023/06/21 12:15:50;;;;;;;8.52;7.03;;;31.50;99.90;;;;;;4984281;28;20309;-74
2023/06/21 12:18:16;;;;;;;8.20;5.97;;;31.70;99.90;;;;;;4973814;28;20205;-73
2023/06/21 12:20:42;;;;;;;10.38;6.80;;;31.50;99.90;;;;;;4970942;28;20324;-72
2023/06/21 12:23:08;;;;;;;6.00;5.45;;;31.20;99.90;;;;;;4990122;28;20617;-73
2023/06/21 12:25:45;;;;;;;7.40;6.63;;;31.20;99.90;;;;;;4973857;28;20201;-74
2023/06/21 12:28:13;;;;;;;7.13;6.43;;;31.20;99.90;;;;;;4984377;28;20709;-73
2023/06/21 12:31:12;;;;;;;6.88;6.25;;;30.70;99.90;;;;;;4987646;28;20209;-73
2023/06/21 12:33:39;;;;;;;6.57;5.88;;;30.40;99.90;;;;;;4969909;28;20210;-75
2023/06/21 12:36:18;;;;;;;7.15;6.30;;;30.10;99.90;;;;;;4973130;28;20205;-76
2023/06/21 12:38:47;;;;;;;7.72;6.32;;;30.20;99.90;;;;;;4990025;28;20182;-72
2023/06/21 12:41:18;;;;;;;8.15;6.63;;;30.10;99.90;;;;;;4988613;28;20244;-71
2023/06/21 12:43:46;;;;;;;6.60;6.00;;;30.20;99.90;;;;;;4985266;28;20645;-72